createdAt,value
2018-05-14T00:01:29.710Z,20.40
2018-05-14T00:03:59.276Z,20.31
2018-05-14T00:06:28.739Z,20.30
2018-05-14T00:08:58.307Z,20.13
2018-05-14T00:11:27.982Z,20.24
2018-05-14T00:13:57.545Z,20.31
2018-05-14T00:16:27.252Z,20.32
2018-05-14T00:18:56.828Z,20.14
2018-05-14T00:21:26.401Z,20.28
2018-05-14T00:23:55.977Z,20.13
2018-05-14T00:26:25.547Z,20.19
2018-05-14T00:28:55.120Z,20.23
2018-05-14T00:31:24.715Z,20.08
2018-05-14T00:33:54.288Z,19.82
2018-05-14T00:36:23.881Z,19.78
2018-05-14T00:38:53.471Z,19.81
2018-05-14T00:41:23.035Z,19.83
2018-05-14T00:43:52.615Z,19.73
2018-05-14T00:46:22.241Z,19.92
2018-05-14T00:48:51.819Z,19.57
2018-05-14T00:51:21.381Z,19.60
2018-05-14T00:53:50.989Z,19.64
2018-05-14T00:56:20.577Z,19.58
2018-05-14T00:58:50.124Z,19.64
2018-05-14T01:01:19.718Z,19.65
2018-05-14T01:03:49.304Z,19.58
2018-05-14T01:06:18.882Z,19.59
2018-05-14T01:08:48.479Z,19.60
2018-05-14T01:11:18.052Z,19.59
2018-05-14T01:13:47.609Z,19.47
2018-05-14T01:16:17.201Z,19.41
2018-05-14T01:18:46.929Z,19.32
2018-05-14T01:21:16.492Z,19.36
2018-05-14T01:23:46.073Z,19.23
2018-05-14T01:26:15.657Z,19.36
2018-05-14T01:28:45.286Z,19.14
2018-05-14T01:31:14.866Z,19.13
2018-05-14T01:33:44.225Z,19.14
2018-05-14T01:36:13.836Z,19.20
2018-05-14T01:38:43.401Z,19.08
2018-05-14T01:41:12.959Z,19.06
2018-05-14T01:43:42.673Z,18.88
2018-05-14T01:46:12.224Z,18.81
2018-05-14T01:48:41.836Z,18.79
2018-05-14T01:51:11.425Z,18.76
2018-05-14T01:53:40.985Z,18.80
2018-05-14T01:56:10.555Z,18.70
2018-05-14T01:58:40.148Z,18.55
2018-05-14T02:01:09.725Z,18.42
2018-05-14T02:03:39.276Z,18.32
2018-05-14T02:06:08.888Z,18.26
2018-05-14T02:08:38.447Z,18.22
2018-05-14T02:11:08.043Z,18.14
2018-05-14T02:13:37.603Z,18.18
2018-05-14T02:16:07.356Z,18.05
2018-05-14T02:18:36.937Z,18.16
2018-05-14T02:21:06.584Z,17.94
2018-05-14T02:23:36.160Z,17.91
2018-05-14T02:26:05.771Z,18.08
2018-05-14T02:28:35.389Z,18.05
2018-05-14T02:31:04.973Z,18.01
2018-05-14T02:33:34.557Z,18.07
2018-05-14T02:36:04.036Z,18.03
2018-05-14T02:38:33.616Z,18.14
2018-05-14T02:41:02.862Z,18.29
2018-05-14T02:43:32.454Z,18.16
2018-05-14T02:46:02.072Z,18.20
2018-05-14T02:48:31.644Z,18.36
2018-05-14T02:51:01.261Z,18.11
2018-05-14T02:53:31.017Z,18.02
2018-05-14T02:56:00.588Z,18.08
2018-05-14T02:58:30.163Z,18.03
2018-05-14T03:00:59.752Z,18.24
2018-05-14T03:03:29.312Z,18.14
2018-05-14T03:05:59.358Z,17.84
2018-05-14T03:08:28.902Z,17.94
2018-05-14T03:10:58.540Z,17.78
2018-05-14T03:13:28.101Z,17.69
2018-05-14T03:15:57.656Z,17.76
2018-05-14T03:18:27.245Z,17.64
2018-05-14T03:20:56.850Z,17.80
2018-05-14T03:23:26.416Z,17.92
2018-05-14T03:25:56.034Z,17.63
2018-05-14T03:28:25.607Z,17.88
2018-05-14T03:30:55.208Z,17.85
2018-05-14T03:33:24.767Z,17.80
2018-05-14T03:35:54.622Z,17.67
2018-05-14T03:38:24.206Z,17.99
2018-05-14T03:40:53.849Z,17.91
2018-05-14T03:43:23.399Z,17.87
2018-05-14T03:45:53.289Z,17.85
2018-05-14T03:48:22.840Z,18.12
2018-05-14T03:50:52.474Z,18.13
2018-05-14T03:53:22.230Z,18.26
2018-05-14T03:55:51.797Z,18.22
2018-05-14T03:58:32.460Z,18.25
2018-05-14T04:01:16.461Z,18.11
2018-05-14T04:03:57.028Z,18.10
2018-05-14T04:06:36.659Z,18.38
2018-05-14T04:09:06.820Z,18.29
2018-05-14T04:11:36.471Z,18.44
2018-05-14T04:14:06.063Z,18.51
2018-05-14T04:16:35.667Z,18.38
2018-05-14T04:19:05.406Z,18.27
2018-05-14T04:21:35.098Z,17.89
2018-05-14T04:24:04.669Z,17.51
2018-05-14T04:26:34.229Z,17.34
2018-05-14T04:29:03.717Z,17.52
2018-05-14T04:31:33.282Z,17.45
2018-05-14T04:34:02.849Z,17.32
2018-05-14T04:36:32.422Z,17.50
2018-05-14T04:39:01.974Z,17.32
2018-05-14T04:41:31.551Z,17.39
2018-05-14T04:44:01.151Z,17.38
2018-05-14T04:49:05.459Z,17.61
2018-05-14T04:51:35.050Z,17.83
2018-05-14T04:54:04.641Z,18.07
2018-05-14T04:56:34.811Z,18.25
2018-05-14T04:59:04.373Z,18.15
2018-05-14T05:01:33.942Z,18.42
2018-05-14T05:04:03.598Z,18.35
2018-05-14T05:06:33.160Z,18.30
2018-05-14T05:09:02.505Z,18.56
2018-05-14T05:11:31.875Z,19.05
2018-05-14T05:14:01.614Z,19.02
2018-05-14T05:16:31.228Z,18.85
2018-05-14T05:19:00.922Z,18.69
2018-05-14T05:21:30.487Z,19.13
2018-05-14T05:24:00.074Z,18.90
2018-05-14T05:26:29.649Z,19.09
2018-05-14T05:28:59.259Z,19.39
2018-05-14T05:31:28.850Z,19.31
2018-05-14T05:33:58.511Z,19.16
2018-05-14T05:36:28.072Z,19.37
2018-05-14T05:38:57.641Z,19.06
2018-05-14T05:41:27.202Z,18.97
2018-05-14T05:43:56.763Z,19.21
2018-05-14T05:46:26.356Z,19.35
2018-05-14T05:48:55.922Z,19.18
2018-05-14T05:51:25.583Z,19.15
2018-05-14T05:53:55.173Z,19.10
2018-05-14T05:56:24.732Z,18.96
2018-05-14T05:58:54.296Z,18.99
2018-05-14T06:01:23.895Z,19.09
2018-05-14T06:03:53.639Z,18.85
2018-05-14T06:06:23.068Z,18.77
2018-05-14T06:08:52.861Z,19.04
2018-05-14T06:11:22.484Z,18.97
2018-05-14T06:13:52.058Z,18.81
2018-05-14T06:16:21.718Z,18.91
2018-05-14T06:18:51.340Z,19.20
2018-05-14T06:21:20.953Z,19.02
2018-05-14T06:23:51.234Z,19.13
2018-05-14T06:26:20.880Z,18.99
2018-05-14T06:28:50.473Z,18.86
2018-05-14T06:31:20.023Z,18.90
2018-05-14T06:33:49.589Z,19.09
2018-05-14T06:36:19.156Z,18.91
2018-05-14T06:38:48.804Z,19.09
2018-05-14T06:41:18.395Z,19.23
2018-05-14T06:43:47.991Z,19.54
2018-05-14T06:46:17.549Z,19.00
2018-05-14T06:48:47.148Z,19.39
2018-05-14T06:51:16.737Z,19.33
2018-05-14T06:53:46.335Z,19.26
2018-05-14T06:56:15.932Z,18.95
2018-05-14T06:58:45.511Z,19.04
2018-05-14T07:01:15.111Z,19.09
2018-05-14T07:03:44.867Z,18.94
2018-05-14T07:06:14.428Z,19.35
2018-05-14T07:08:44.164Z,19.14
2018-05-14T07:11:13.715Z,19.51
2018-05-14T07:13:42.955Z,19.59
2018-05-14T07:16:12.534Z,19.28
2018-05-14T07:18:42.235Z,19.26
2018-05-14T07:21:11.944Z,19.30
2018-05-14T07:23:41.609Z,19.54
2018-05-14T07:26:11.208Z,19.85
2018-05-14T07:28:40.779Z,19.76
2018-05-14T07:31:10.939Z,19.84
2018-05-14T07:33:41.106Z,19.56
2018-05-14T07:36:10.669Z,19.27
2018-05-14T07:38:40.239Z,19.53
2018-05-14T07:41:10.148Z,19.74
2018-05-14T07:43:39.771Z,19.59
2018-05-14T07:46:09.151Z,19.61
2018-05-14T07:48:38.985Z,19.59
2018-05-14T07:51:08.559Z,19.33
2018-05-14T07:53:38.816Z,19.84
2018-05-14T07:56:09.029Z,19.86
2018-05-14T07:58:39.214Z,19.92
2018-05-14T08:01:08.880Z,19.87
2018-05-14T08:03:38.455Z,19.93
2018-05-14T08:06:08.016Z,19.78
2018-05-14T08:08:37.585Z,19.64
2018-05-14T08:11:07.150Z,19.99
2018-05-14T08:13:36.841Z,19.73
2018-05-14T08:16:06.515Z,19.73
2018-05-14T08:18:36.070Z,19.97
2018-05-14T08:21:05.646Z,20.22
2018-05-14T08:23:35.275Z,20.12
2018-05-14T08:26:04.794Z,20.22
2018-05-14T08:28:34.364Z,20.28
2018-05-14T08:31:04.050Z,20.47
2018-05-14T08:33:33.632Z,20.45
2018-05-14T08:36:03.260Z,20.49
2018-05-14T08:38:32.957Z,20.66
2018-05-14T08:41:02.607Z,20.89
2018-05-14T08:43:32.195Z,20.99
2018-05-14T08:46:01.768Z,21.01
2018-05-14T08:48:31.324Z,20.82
2018-05-14T08:51:00.913Z,20.91
2018-05-14T08:53:30.489Z,21.00
2018-05-14T08:56:00.079Z,21.18
2018-05-14T08:58:29.656Z,21.40
2018-05-14T09:00:59.245Z,21.34
2018-05-14T09:03:28.902Z,21.19
2018-05-14T09:05:58.577Z,21.61
2018-05-14T09:08:28.332Z,21.48
2018-05-14T09:10:57.898Z,21.50
2018-05-14T09:13:27.456Z,21.36
2018-05-14T09:15:57.015Z,21.12
2018-05-14T09:18:26.598Z,21.44
2018-05-14T09:20:56.263Z,21.80
2018-05-14T09:23:25.864Z,21.89
2018-05-14T09:25:55.435Z,22.05
2018-05-14T09:28:25.005Z,21.55
2018-05-14T09:30:54.558Z,21.71
2018-05-14T09:33:24.121Z,21.52
2018-05-14T09:35:53.687Z,22.21
2018-05-14T09:38:23.242Z,22.16
2018-05-14T09:40:52.812Z,22.38
2018-05-14T09:43:22.292Z,22.80
2018-05-14T09:45:51.850Z,22.96
2018-05-14T09:48:21.428Z,23.17
2018-05-14T09:50:51.032Z,22.31
2018-05-14T09:53:20.579Z,22.16
2018-05-14T09:55:50.135Z,22.45
2018-05-14T09:58:19.708Z,22.73
2018-05-14T10:00:49.284Z,22.12
2018-05-14T10:03:18.840Z,22.11
2018-05-14T10:05:48.427Z,22.04
2018-05-14T10:08:18.005Z,22.36
2018-05-14T10:10:49.332Z,22.50
2018-05-14T10:13:18.997Z,21.66
2018-05-14T10:15:48.748Z,21.58
2018-05-14T10:18:18.360Z,21.68
2018-05-14T10:20:47.929Z,21.13
2018-05-14T10:23:17.647Z,21.22
2018-05-14T10:25:46.978Z,21.22
2018-05-14T10:28:16.538Z,21.52
2018-05-14T10:30:46.269Z,21.89
2018-05-14T10:33:15.838Z,22.52
2018-05-14T10:35:45.402Z,23.00
2018-05-14T10:38:14.983Z,22.64
2018-05-14T10:40:44.574Z,22.81
2018-05-14T10:43:14.314Z,22.32
2018-05-14T10:45:43.950Z,22.58
2018-05-14T10:48:13.612Z,22.56
2018-05-14T10:50:43.183Z,22.43
2018-05-14T10:53:12.833Z,22.84
2018-05-14T10:55:42.377Z,22.55
2018-05-14T10:58:11.939Z,22.12
2018-05-14T11:00:41.504Z,22.49
2018-05-14T11:03:11.094Z,21.78
2018-05-14T11:05:40.967Z,22.29
2018-05-14T11:08:10.782Z,21.88
2018-05-14T11:10:40.133Z,22.02
2018-05-14T11:13:09.895Z,22.04
2018-05-14T11:15:39.473Z,21.82
2018-05-14T11:18:09.057Z,21.67
2018-05-14T11:20:39.250Z,21.60
2018-05-14T11:23:08.985Z,21.52
2018-05-14T11:25:38.591Z,21.95
2018-05-14T11:28:08.184Z,22.07
2018-05-14T11:30:37.748Z,22.05
2018-05-14T11:33:07.307Z,22.15
2018-05-14T11:35:36.908Z,22.13
2018-05-14T11:38:06.661Z,21.75
2018-05-14T11:40:36.215Z,21.87
2018-05-14T11:43:05.796Z,21.47
2018-05-14T11:45:35.383Z,22.06
2018-05-14T11:48:04.938Z,22.20
2018-05-14T11:50:34.512Z,21.98
2018-05-14T11:53:04.081Z,21.96
2018-05-14T11:55:33.652Z,21.87
2018-05-14T11:58:03.221Z,22.15
2018-05-14T12:00:32.946Z,22.37
2018-05-14T12:03:02.651Z,22.58
2018-05-14T12:05:32.275Z,22.69
2018-05-14T12:08:01.847Z,22.73
2018-05-14T12:10:31.398Z,23.01
2018-05-14T12:13:00.968Z,22.78
2018-05-14T12:15:30.529Z,23.03
2018-05-14T12:18:00.151Z,22.93
2018-05-14T12:20:29.885Z,23.04
2018-05-14T12:22:59.442Z,23.00
2018-05-14T12:25:28.999Z,23.03
2018-05-14T12:27:58.607Z,22.95
2018-05-14T12:30:28.159Z,22.62
2018-05-14T12:32:57.719Z,22.41
2018-05-14T12:35:27.282Z,22.73
2018-05-14T12:37:56.858Z,22.59
2018-05-14T12:40:26.563Z,22.17
2018-05-14T12:42:56.143Z,22.22
2018-05-14T12:45:25.744Z,22.17
2018-05-14T12:47:55.320Z,22.64
2018-05-14T12:50:24.876Z,22.68
2018-05-14T12:52:54.718Z,22.59
2018-05-14T12:55:24.261Z,22.95
2018-05-14T12:57:53.830Z,23.25
2018-05-14T13:00:23.406Z,22.95
2018-05-14T13:02:52.995Z,23.03
2018-05-14T13:05:22.563Z,23.29
2018-05-14T13:07:52.148Z,23.12
2018-05-14T13:10:21.725Z,22.81
2018-05-14T13:12:51.104Z,22.72
2018-05-14T13:15:20.656Z,23.27
2018-05-14T13:17:50.216Z,23.40
2018-05-14T13:20:19.808Z,23.76
2018-05-14T13:22:49.427Z,23.78
2018-05-14T13:25:19.002Z,23.91
2018-05-14T13:27:48.710Z,23.86
2018-05-14T13:30:18.273Z,24.04
2018-05-14T13:32:47.869Z,24.19
2018-05-14T13:35:17.467Z,24.06
2018-05-14T13:37:47.120Z,24.26
2018-05-14T13:40:16.809Z,24.58
2018-05-14T13:42:46.527Z,24.69
2018-05-14T13:45:16.458Z,25.04
2018-05-14T13:47:46.023Z,24.86
2018-05-14T13:50:15.608Z,24.78
2018-05-14T13:52:45.182Z,24.59
2018-05-14T13:55:14.806Z,24.19
2018-05-14T13:57:44.615Z,23.50
2018-05-14T14:00:14.530Z,23.40
2018-05-14T14:02:44.099Z,23.25
2018-05-14T14:05:13.833Z,23.29
2018-05-14T14:07:43.375Z,23.18
2018-05-14T14:10:13.146Z,23.16
2018-05-14T14:12:42.720Z,23.04
2018-05-14T14:15:12.285Z,23.09
2018-05-14T14:17:41.875Z,22.73
2018-05-14T14:20:11.423Z,22.29
2018-05-14T14:22:41.000Z,22.70
2018-05-14T14:25:10.566Z,22.79
2018-05-14T14:27:40.139Z,23.01
2018-05-14T14:30:09.699Z,22.95
2018-05-14T14:32:39.271Z,22.60
2018-05-14T14:35:08.846Z,22.59
2018-05-14T14:37:38.427Z,22.47
2018-05-14T14:40:07.987Z,22.22
2018-05-14T14:42:37.568Z,22.56
2018-05-14T14:45:07.120Z,22.38
2018-05-14T14:47:36.777Z,21.99
2018-05-14T14:50:06.356Z,21.80
2018-05-14T14:52:35.927Z,22.07
2018-05-14T14:55:05.493Z,21.99
2018-05-14T14:57:35.066Z,22.21
2018-05-14T15:00:04.313Z,22.01
2018-05-14T15:02:33.897Z,22.11
2018-05-14T15:05:03.472Z,22.11
2018-05-14T15:07:33.039Z,22.02
2018-05-14T15:10:02.663Z,22.09
2018-05-14T15:12:31.991Z,22.08
2018-05-14T15:15:01.597Z,21.56
2018-05-14T15:17:30.917Z,21.72
2018-05-14T15:20:00.718Z,21.64
2018-05-14T15:22:30.418Z,21.64
2018-05-14T15:24:59.994Z,21.64
2018-05-14T15:27:29.576Z,21.24
2018-05-14T15:29:59.132Z,21.41
2018-05-14T15:32:28.712Z,21.53
2018-05-14T15:34:58.304Z,21.33
2018-05-14T15:37:27.871Z,21.31
2018-05-14T15:39:57.443Z,21.18
2018-05-14T15:42:27.007Z,20.93
2018-05-14T15:44:56.718Z,21.01
2018-05-14T15:47:26.266Z,21.03
2018-05-14T15:49:55.854Z,21.14
2018-05-14T15:52:25.614Z,21.30
2018-05-14T15:54:55.229Z,21.18
2018-05-14T15:57:24.782Z,21.27
2018-05-14T15:59:55.202Z,21.26
2018-05-14T16:02:24.814Z,21.06
2018-05-14T16:04:54.363Z,20.88
2018-05-14T16:07:23.928Z,20.78
2018-05-14T16:09:53.490Z,20.75
2018-05-14T16:12:23.057Z,20.93
2018-05-14T16:14:52.624Z,20.74
2018-05-14T16:17:22.225Z,20.74
2018-05-14T16:19:51.920Z,20.81
2018-05-14T16:22:21.487Z,20.70
2018-05-14T16:24:51.075Z,20.72
2018-05-14T16:27:20.788Z,20.65
2018-05-14T16:29:50.442Z,20.73
2018-05-14T16:32:20.079Z,20.73
2018-05-14T16:34:49.645Z,20.73
2018-05-14T16:37:19.203Z,20.56
2018-05-14T16:39:48.892Z,20.52
2018-05-14T16:42:18.593Z,20.46
2018-05-14T16:44:48.150Z,20.48
2018-05-14T16:47:17.730Z,20.49
2018-05-14T16:49:47.286Z,20.15
2018-05-14T16:52:16.881Z,20.19
2018-05-14T16:54:46.458Z,19.88
2018-05-14T16:57:16.036Z,19.69
2018-05-14T16:59:45.609Z,19.38
2018-05-14T17:02:15.191Z,19.23
2018-05-14T17:04:44.787Z,19.26
2018-05-14T17:07:14.152Z,19.15
2018-05-14T17:09:43.734Z,19.28
2018-05-14T17:12:13.443Z,19.26
2018-05-14T17:14:43.140Z,19.47
2018-05-14T17:17:12.712Z,19.51
2018-05-14T17:19:42.864Z,19.62
2018-05-14T17:22:12.458Z,19.84
2018-05-14T17:24:42.028Z,19.53
2018-05-14T17:27:11.585Z,19.38
2018-05-14T17:29:41.179Z,19.44
2018-05-14T17:32:10.857Z,19.47
2018-05-14T17:34:40.517Z,19.36
2018-05-14T17:37:10.148Z,19.29
2018-05-14T17:39:39.715Z,19.29
2018-05-14T17:42:09.314Z,19.20
2018-05-14T17:44:38.894Z,19.12
2018-05-14T17:47:08.450Z,19.20
2018-05-14T17:49:38.008Z,19.11
2018-05-14T17:52:07.566Z,18.93
2018-05-14T17:54:37.159Z,18.90
2018-05-14T17:57:06.835Z,19.11
2018-05-14T17:59:36.465Z,19.13
2018-05-14T18:02:06.048Z,19.26
2018-05-14T18:04:35.857Z,19.32
2018-05-14T18:07:05.848Z,19.34
2018-05-14T18:09:35.437Z,19.41
2018-05-14T18:12:06.725Z,19.42
2018-05-14T18:14:36.116Z,19.46
2018-05-14T18:17:05.784Z,19.18
2018-05-14T18:19:40.631Z,19.18
2018-05-14T18:22:13.025Z,19.06
2018-05-14T18:24:47.926Z,19.12
2018-05-14T18:27:22.852Z,19.17
2018-05-14T18:29:55.429Z,19.19
2018-05-14T18:32:24.993Z,19.10
2018-05-14T18:34:56.247Z,19.03
2018-05-14T18:37:25.854Z,18.93
2018-05-14T18:39:55.442Z,18.85
2018-05-14T18:42:25.176Z,18.87
2018-05-14T18:44:54.748Z,18.77
2018-05-14T18:47:24.322Z,18.66
2018-05-14T18:49:53.897Z,18.67
2018-05-14T18:52:23.602Z,18.67
2018-05-14T18:54:53.155Z,18.70
2018-05-14T18:57:22.880Z,18.67
2018-05-14T18:59:52.637Z,18.67
2018-05-14T19:02:22.505Z,18.71
2018-05-14T19:04:52.068Z,18.75
2018-05-14T19:07:21.684Z,18.58
2018-05-14T19:09:51.419Z,18.56
2018-05-14T19:12:21.044Z,18.44
2018-05-14T19:14:56.305Z,18.45
2018-05-14T19:17:31.216Z,18.50
2018-05-14T19:20:00.792Z,18.45
2018-05-14T19:22:35.630Z,18.41
2018-05-14T19:25:05.198Z,18.39
2018-05-14T19:27:34.462Z,18.59
2018-05-14T19:30:03.885Z,18.44
2018-05-14T19:32:33.475Z,18.38
2018-05-14T19:35:08.523Z,18.43
2018-05-14T19:37:38.076Z,18.38
2018-05-14T19:40:13.152Z,18.41
2018-05-14T19:42:42.840Z,18.43
2018-05-14T19:45:12.457Z,18.38
2018-05-14T19:47:42.032Z,18.46
2018-05-14T19:50:11.641Z,18.57
2018-05-14T19:52:41.389Z,18.55
2018-05-14T19:55:10.955Z,18.58
2018-05-14T19:57:40.509Z,18.60
2018-05-14T20:00:10.119Z,18.51
2018-05-14T20:02:39.741Z,18.57
2018-05-14T20:05:09.328Z,18.54
2018-05-14T20:07:38.940Z,18.49
2018-05-14T20:10:08.583Z,18.51
2018-05-14T20:12:38.159Z,18.40
2018-05-14T20:15:07.824Z,18.49
2018-05-14T20:17:37.404Z,18.56
2018-05-14T20:20:07.025Z,18.48
2018-05-14T20:22:36.947Z,18.57
2018-05-14T20:25:06.581Z,18.54
2018-05-14T20:27:36.367Z,18.60
2018-05-14T20:30:05.957Z,18.54
2018-05-14T20:32:35.621Z,18.60
2018-05-14T20:35:05.294Z,18.65
2018-05-14T20:37:35.074Z,18.65
2018-05-14T20:40:04.667Z,18.63
2018-05-14T20:42:34.304Z,18.60
2018-05-14T20:45:03.935Z,18.58
2018-05-14T20:47:33.719Z,18.67
2018-05-14T20:50:03.506Z,18.72
2018-05-14T20:52:33.077Z,18.75
2018-05-14T20:55:02.646Z,18.88
2018-05-14T20:57:32.328Z,18.97
2018-05-14T21:00:01.902Z,18.96
2018-05-14T21:02:31.489Z,18.42
2018-05-14T21:05:01.084Z,18.38
2018-05-14T21:07:30.700Z,18.33
2018-05-14T21:10:00.289Z,18.26
2018-05-14T21:12:31.501Z,18.11
2018-05-14T21:15:01.150Z,18.11
2018-05-14T21:17:30.907Z,18.15
2018-05-14T21:20:00.372Z,18.08
2018-05-14T21:22:29.945Z,18.08
2018-05-14T21:24:59.523Z,18.14
2018-05-14T21:27:29.175Z,18.17
2018-05-14T21:29:58.735Z,18.18
2018-05-14T21:32:28.475Z,18.24
2018-05-14T21:34:58.102Z,18.23
2018-05-14T21:37:27.691Z,18.21
2018-05-14T21:39:57.284Z,18.14
2018-05-14T21:42:26.881Z,18.08
2018-05-14T21:44:56.456Z,18.05
2018-05-14T21:47:26.040Z,18.08
2018-05-14T21:49:55.610Z,17.96
2018-05-14T21:52:24.901Z,17.96
2018-05-14T21:54:54.480Z,17.89
2018-05-14T21:57:23.770Z,17.83
2018-05-14T21:59:53.477Z,17.68
2018-05-14T22:02:23.050Z,17.69
2018-05-14T22:04:52.604Z,17.73
2018-05-14T22:07:22.205Z,17.69
2018-05-14T22:09:51.487Z,17.69
2018-05-14T22:12:21.284Z,17.77
2018-05-14T22:14:50.859Z,17.76
2018-05-14T22:17:20.411Z,17.75
2018-05-14T22:19:53.006Z,17.68
2018-05-14T22:22:22.627Z,17.61
2018-05-14T22:24:52.190Z,17.74
2018-05-14T22:27:21.540Z,17.42
2018-05-14T22:29:51.116Z,17.53
2018-05-14T22:32:20.780Z,17.67
2018-05-14T22:34:50.095Z,17.52
2018-05-14T22:37:19.726Z,17.66
2018-05-14T22:39:49.487Z,17.71
2018-05-14T22:42:19.106Z,17.94
2018-05-14T22:44:48.574Z,17.83
2018-05-14T22:47:18.163Z,18.07
2018-05-14T22:49:47.727Z,17.59
2018-05-14T22:52:17.336Z,17.86
2018-05-14T22:54:46.969Z,18.03
2018-05-14T22:57:16.614Z,17.93
2018-05-14T22:59:46.330Z,18.00
2018-05-14T23:02:15.961Z,17.95
2018-05-14T23:04:45.537Z,17.72
2018-05-14T23:07:15.096Z,17.65
2018-05-14T23:09:44.676Z,17.72
2018-05-14T23:12:14.262Z,17.66
2018-05-14T23:14:43.815Z,17.60
2018-05-14T23:17:13.399Z,17.54
2018-05-14T23:19:42.964Z,17.61
2018-05-14T23:22:17.163Z,17.69
2018-05-14T23:24:46.447Z,17.58
2018-05-14T23:27:16.158Z,17.55
2018-05-14T23:29:45.728Z,17.29
2018-05-14T23:32:15.300Z,17.51
2018-05-14T23:34:45.023Z,17.43
2018-05-14T23:37:14.898Z,17.43
2018-05-14T23:39:44.454Z,17.46
2018-05-14T23:42:14.131Z,17.29
2018-05-14T23:44:43.699Z,17.25
2018-05-14T23:47:13.287Z,17.35
2018-05-14T23:49:42.864Z,17.41
2018-05-14T23:52:12.501Z,17.41
2018-05-14T23:54:42.151Z,17.33
2018-05-14T23:57:11.728Z,17.35
2018-05-14T23:59:41.296Z,17.28
